Time;durP1;ratioP1;P1;durP2;ratioP2;P2;SDS_P1;SDS_P2;PMS_P1;PMS_P2;Temp;Humidity;BMP_temperature;BMP_pressure;BME280_temperature;BME280_humidity;BME280_pressure;Samples;Min_cycle;Max_cycle;Signal;HPM_P1;HPM_P2
2022/08/21 00:00:09;;;;;;;7.93;2.83;;;17.10;99.90;;;;;;5112594;28;20196;-79
2022/08/21 00:02:36;;;;;;;6.43;2.75;;;17.20;99.90;;;;;;5109781;28;20192;-82
2022/08/21 00:05:04;;;;;;;7.43;3.67;;;17.10;99.90;;;;;;5093152;28;20201;-81
2022/08/21 00:07:31;;;;;;;7.50;3.15;;;17.10;99.90;;;;;;5092700;28;20197;-79
2022/08/21 00:09:58;;;;;;;4.88;2.65;;;17.10;99.90;;;;;;5092113;28;20335;-82
2022/08/21 00:12:27;;;;;;;7.55;3.00;;;17.10;99.90;;;;;;5092313;28;20534;-81
2022/08/21 00:14:54;;;;;;;6.47;2.83;;;17.10;99.90;;;;;;5092569;28;20201;-82
2022/08/21 00:17:21;;;;;;;7.25;2.50;;;17.10;99.90;;;;;;5092374;28;20291;-83
2022/08/21 00:19:48;;;;;;;5.82;2.60;;;17.00;99.90;;;;;;5092200;28;20200;-81
2022/08/21 00:22:15;;;;;;;6.50;2.60;;;17.00;99.90;;;;;;5091629;28;20239;-78
2022/08/21 00:24:42;;;;;;;5.18;3.00;;;17.00;99.90;;;;;;5091028;28;20206;-79
2022/08/21 00:27:09;;;;;;;8.57;2.83;;;17.00;99.90;;;;;;5091921;28;20196;-78
2022/08/21 00:29:37;;;;;;;8.52;3.22;;;17.00;99.90;;;;;;5091859;28;20203;-80
2022/08/21 00:32:04;;;;;;;6.47;3.10;;;17.00;99.90;;;;;;5093454;28;20217;-78
2022/08/21 00:34:31;;;;;;;6.03;2.90;;;17.00;99.90;;;;;;5116371;28;20204;-81
2022/08/21 00:36:58;;;;;;;6.70;2.90;;;17.00;99.90;;;;;;5109644;28;20197;-80
2022/08/21 00:39:25;;;;;;;3.83;2.45;;;17.00;99.90;;;;;;5095707;28;20204;-81
2022/08/21 00:41:52;;;;;;;7.80;3.42;;;17.00;99.90;;;;;;5096224;28;20189;-82
2022/08/21 00:44:18;;;;;;;9.70;3.05;;;16.90;99.90;;;;;;5096358;28;20279;-82
2022/08/21 00:46:47;;;;;;;8.57;3.42;;;16.90;99.90;;;;;;5095583;28;20563;-82
2022/08/21 00:49:14;;;;;;;6.63;3.08;;;16.90;99.90;;;;;;5096076;28;20189;-83
2022/08/21 00:51:45;;;;;;;5.72;2.65;;;16.90;99.90;;;;;;5095245;28;20572;-82
2022/08/21 00:54:14;;;;;;;8.45;3.58;;;16.90;99.90;;;;;;5095963;28;20193;-81
2022/08/21 00:56:41;;;;;;;6.35;3.05;;;16.90;99.90;;;;;;5095557;28;20208;-81
2022/08/21 00:59:08;;;;;;;6.32;3.30;;;16.90;99.90;;;;;;5095007;28;20196;-82
2022/08/21 01:01:35;;;;;;;9.23;3.97;;;16.90;99.90;;;;;;5095827;28;20576;-78
2022/08/21 01:04:04;;;;;;;7.93;3.05;;;16.90;99.90;;;;;;5095403;28;20204;-79
2022/08/21 01:06:31;;;;;;;6.90;3.40;;;16.90;99.90;;;;;;5095075;28;20204;-79
2022/08/21 01:08:59;;;;;;;6.93;3.28;;;16.90;99.90;;;;;;5095168;28;20234;-79
2022/08/21 01:11:26;;;;;;;10.07;2.70;;;16.80;99.90;;;;;;5095350;28;20204;-79
2022/08/21 01:13:54;;;;;;;6.60;3.22;;;16.80;99.90;;;;;;5094617;28;20225;-79
2022/08/21 01:16:23;;;;;;;8.88;3.17;;;16.80;99.90;;;;;;5095628;28;20204;-78
2022/08/21 01:18:51;;;;;;;5.80;2.88;;;16.80;99.90;;;;;;5111628;28;20204;-80
2022/08/21 01:21:21;;;;;;;8.30;3.13;;;16.90;99.90;;;;;;5114938;28;20199;-79
2022/08/21 01:23:50;;;;;;;9.38;3.67;;;16.90;99.90;;;;;;5112080;28;21066;-80
2022/08/21 01:26:28;;;;;;;8.77;3.08;;;16.90;99.90;;;;;;5095085;28;20196;-81
2022/08/21 01:28:59;;;;;;;7.45;3.00;;;16.90;99.90;;;;;;5094408;28;20208;-80
2022/08/21 01:31:28;;;;;;;10.73;3.70;;;16.90;99.90;;;;;;5095051;28;20249;-79
2022/08/21 01:33:56;;;;;;;7.47;3.17;;;16.90;99.90;;;;;;5093753;28;20679;-81
2022/08/21 01:36:25;;;;;;;9.35;3.20;;;16.90;99.90;;;;;;5095333;28;20522;-81
2022/08/21 01:38:52;;;;;;;5.72;2.78;;;16.90;99.90;;;;;;5095617;28;20287;-81
2022/08/21 01:41:19;;;;;;;8.13;2.72;;;16.90;99.90;;;;;;5095151;28;20231;-79
2022/08/21 01:43:47;;;;;;;11.23;2.97;;;17.00;99.90;;;;;;5095278;28;20192;-82
2022/08/21 01:46:14;;;;;;;8.20;2.55;;;17.20;99.90;;;;;;5095973;28;20600;-83
2022/08/21 01:48:42;;;;;;;7.43;2.83;;;17.30;99.90;;;;;;5096064;28;20211;-82
2022/08/21 01:51:09;;;;;;;7.72;2.60;;;17.30;99.90;;;;;;5111283;28;20211;-81
2022/08/21 01:53:38;;;;;;;9.00;2.95;;;17.30;99.90;;;;;;5115914;28;20265;-81
2022/08/21 01:56:08;;;;;;;11.40;2.90;;;17.30;99.90;;;;;;5118789;28;20199;-79
2022/08/21 01:58:35;;;;;;;6.40;2.50;;;17.40;99.90;;;;;;5104635;28;20280;-80
2022/08/21 02:01:02;;;;;;;9.98;2.58;;;17.40;99.90;;;;;;5114820;28;20208;-78
2022/08/21 02:03:30;;;;;;;8.25;2.80;;;17.40;99.90;;;;;;5128233;28;20227;-80
2022/08/21 02:05:57;;;;;;;10.75;3.65;;;17.50;99.90;;;;;;5126742;28;20240;-81
2022/08/21 02:08:24;;;;;;;11.77;3.20;;;17.50;99.90;;;;;;5110298;28;20287;-79
2022/08/21 02:10:53;;;;;;;7.90;2.90;;;17.50;99.90;;;;;;5095616;28;20232;-80
2022/08/21 02:13:20;;;;;;;9.55;3.45;;;17.40;99.90;;;;;;5095286;28;20213;-79
2022/08/21 02:15:47;;;;;;;7.43;2.50;;;17.40;99.90;;;;;;5094334;28;20257;-77
2022/08/21 02:18:14;;;;;;;13.27;3.50;;;17.40;99.90;;;;;;5094130;28;20499;-79
2022/08/21 02:20:44;;;;;;;9.32;3.13;;;17.30;99.90;;;;;;5094544;28;20275;-79
2022/08/21 02:23:12;;;;;;;10.73;3.45;;;17.30;99.90;;;;;;5094805;28;20196;-83
2022/08/21 02:25:39;;;;;;;9.05;3.28;;;17.20;99.90;;;;;;5094684;28;20200;-81
2022/08/21 02:28:10;;;;;;;11.93;4.03;;;17.20;99.90;;;;;;5094475;28;20209;-80
2022/08/21 02:30:40;;;;;;;11.82;3.92;;;17.10;99.90;;;;;;5093981;28;20207;-81
2022/08/21 02:33:10;;;;;;;7.00;3.45;;;17.10;99.90;;;;;;5094601;28;20213;-82
2022/08/21 02:35:38;;;;;;;11.63;3.70;;;17.00;99.90;;;;;;5094059;28;20216;-82
2022/08/21 02:38:09;;;;;;;11.52;3.38;;;17.00;99.90;;;;;;5093778;28;20209;-80
2022/08/21 02:40:38;;;;;;;9.40;3.65;;;16.90;99.90;;;;;;5094270;28;20204;-80
2022/08/21 02:43:08;;;;;;;4.60;3.05;;;16.90;99.90;;;;;;5094450;28;20204;-81
2022/08/21 02:45:36;;;;;;;10.00;4.22;;;16.90;99.90;;;;;;5093234;28;20627;-80
2022/08/21 02:48:06;;;;;;;8.25;3.67;;;16.80;99.90;;;;;;5093994;28;20581;-81
2022/08/21 02:50:36;;;;;;;10.23;3.85;;;16.80;99.90;;;;;;5093599;28;20660;-80
2022/08/21 02:53:04;;;;;;;10.27;4.53;;;16.70;99.90;;;;;;5093196;28;20219;-79
2022/08/21 02:55:33;;;;;;;10.40;4.43;;;16.70;99.90;;;;;;5093041;28;20593;-81
2022/08/21 02:58:01;;;;;;;9.43;4.28;;;16.70;99.90;;;;;;5093452;28;20200;-79
2022/08/21 03:00:31;;;;;;;7.93;3.65;;;16.70;99.90;;;;;;5093929;28;20208;-79
2022/08/21 03:03:00;;;;;;;14.68;4.10;;;16.60;99.90;;;;;;5094091;28;20212;-82
2022/08/21 03:05:31;;;;;;;11.73;4.32;;;16.60;99.90;;;;;;5093197;28;20200;-82
2022/08/21 03:07:58;;;;;;;8.18;3.85;;;16.60;99.90;;;;;;5093665;28;20200;-81
2022/08/21 03:10:25;;;;;;;6.15;3.80;;;16.60;99.90;;;;;;5093315;28;20232;-81
2022/08/21 03:12:54;;;;;;;9.02;3.70;;;16.60;99.90;;;;;;5092247;28;20307;-81
2022/08/21 03:15:24;;;;;;;7.70;3.72;;;16.60;99.90;;;;;;5093320;28;20201;-81
2022/08/21 03:17:54;;;;;;;9.32;3.95;;;16.50;99.90;;;;;;5093532;28;20695;-80
2022/08/21 03:20:24;;;;;;;7.80;3.70;;;16.50;99.90;;;;;;5092726;28;20192;-81
2022/08/21 03:22:52;;;;;;;9.85;4.03;;;16.50;99.90;;;;;;5093579;28;20193;-82
2022/08/21 03:25:20;;;;;;;8.90;3.53;;;16.50;99.90;;;;;;5100693;28;20699;-82
2022/08/21 03:27:48;;;;;;;5.95;3.58;;;16.50;99.90;;;;;;5112814;28;20341;-81
2022/08/21 03:30:16;;;;;;;6.22;3.28;;;16.40;99.90;;;;;;5113117;28;20644;-83
2022/08/21 03:32:43;;;;;;;9.00;3.90;;;16.40;99.90;;;;;;5113604;28;20314;-82
2022/08/21 03:35:11;;;;;;;8.95;4.07;;;16.40;99.90;;;;;;5102008;28;20227;-82
2022/08/21 03:37:38;;;;;;;6.47;3.67;;;16.50;99.90;;;;;;5093116;28;20192;-82
2022/08/21 03:40:07;;;;;;;8.27;4.10;;;16.40;99.90;;;;;;5093070;28;20502;-82
2022/08/21 03:42:34;;;;;;;12.38;4.38;;;16.40;99.90;;;;;;5092701;28;20710;-82
2022/08/21 03:45:01;;;;;;;5.78;3.40;;;16.40;99.90;;;;;;5092963;28;20184;-80
2022/08/21 03:47:28;;;;;;;8.32;3.45;;;16.40;99.90;;;;;;5092531;28;20228;-81
2022/08/21 03:49:55;;;;;;;10.73;3.90;;;16.40;99.90;;;;;;5092672;28;20192;-81
2022/08/21 03:52:23;;;;;;;9.05;3.78;;;16.40;99.90;;;;;;5092659;28;20619;-81
2022/08/21 03:54:50;;;;;;;11.43;4.35;;;16.40;99.90;;;;;;5092268;28;20209;-81
2022/08/21 03:57:18;;;;;;;9.95;3.83;;;16.30;99.90;;;;;;5093546;28;20578;-82
2022/08/21 03:59:46;;;;;;;6.50;3.17;;;16.30;99.90;;;;;;5092459;28;20214;-80
2022/08/21 04:02:16;;;;;;;5.65;3.58;;;16.30;99.90;;;;;;5091756;28;20254;-81
2022/08/21 04:04:44;;;;;;;8.50;3.40;;;16.30;99.90;;;;;;5092220;28;20569;-81
2022/08/21 04:07:10;;;;;;;6.60;3.70;;;16.30;99.90;;;;;;5092388;28;20208;-81
2022/08/21 04:09:39;;;;;;;11.32;3.60;;;16.30;99.90;;;;;;5091637;28;20246;-81
2022/08/21 04:12:06;;;;;;;7.95;3.85;;;16.30;99.90;;;;;;5092208;28;20623;-81
2022/08/21 04:14:33;;;;;;;7.43;3.10;;;16.30;99.90;;;;;;5092557;28;20212;-81
2022/08/21 04:17:00;;;;;;;8.70;3.72;;;16.20;99.90;;;;;;5106736;28;20207;-81
2022/08/21 04:19:27;;;;;;;9.15;3.70;;;16.20;99.90;;;;;;5112664;28;20195;-81
2022/08/21 04:21:54;;;;;;;7.90;3.25;;;16.30;99.90;;;;;;5112524;28;20245;-80
2022/08/21 04:24:21;;;;;;;7.90;4.10;;;16.20;99.90;;;;;;5111479;28;20260;-81
2022/08/21 04:26:49;;;;;;;8.43;3.80;;;16.20;99.90;;;;;;5111670;28;20208;-81
2022/08/21 04:29:16;;;;;;;7.25;3.30;;;16.20;99.90;;;;;;5102904;28;20208;-81
2022/08/21 04:31:43;;;;;;;12.02;3.60;;;16.20;99.90;;;;;;5091453;28;20279;-79
2022/08/21 04:34:10;;;;;;;8.70;3.90;;;16.20;99.90;;;;;;5091465;28;20308;-81
2022/08/21 04:36:37;;;;;;;9.30;3.67;;;16.20;99.90;;;;;;5091320;28;20203;-81
2022/08/21 04:39:04;;;;;;;12.63;4.05;;;16.20;99.90;;;;;;5091897;28;20642;-81
2022/08/21 04:41:31;;;;;;;6.85;3.58;;;16.20;99.90;;;;;;5091988;28;20570;-81
2022/08/21 04:44:00;;;;;;;10.70;3.67;;;16.20;99.90;;;;;;5091543;28;20200;-81
2022/08/21 04:46:27;;;;;;;8.90;3.45;;;16.20;99.90;;;;;;5092047;28;20205;-81
2022/08/21 04:48:54;;;;;;;8.70;3.55;;;16.20;99.90;;;;;;5091856;28;20203;-81
2022/08/21 04:51:26;;;;;;;8.35;3.25;;;16.20;99.90;;;;;;5105924;28;20535;-80
2022/08/21 04:53:57;;;;;;;6.28;3.22;;;16.20;99.90;;;;;;5105193;28;20525;-81
2022/08/21 04:56:29;;;;;;;9.23;3.58;;;16.20;99.90;;;;;;5092207;28;20209;-80
2022/08/21 04:59:02;;;;;;;9.27;3.55;;;16.20;99.90;;;;;;5091866;28;20300;-81
2022/08/21 05:01:33;;;;;;;7.60;3.65;;;16.20;99.90;;;;;;5091835;28;20295;-81
2022/08/21 05:04:04;;;;;;;10.27;3.45;;;16.20;99.90;;;;;;5092080;28;20203;-80
2022/08/21 05:06:34;;;;;;;11.10;3.67;;;16.20;99.90;;;;;;5091246;28;20201;-81
2022/08/21 05:09:02;;;;;;;10.30;3.40;;;16.20;99.90;;;;;;5091591;28;20239;-81
2022/08/21 05:11:30;;;;;;;8.95;3.47;;;16.20;99.90;;;;;;5091902;28;20239;-80
2022/08/21 05:13:57;;;;;;;11.00;3.65;;;16.30;99.90;;;;;;5090980;28;20426;-80
2022/08/21 05:16:25;;;;;;;9.38;3.28;;;16.30;99.90;;;;;;5091885;28;20216;-79
2022/08/21 05:18:53;;;;;;;11.85;3.75;;;16.30;99.90;;;;;;5094969;28;20199;-81
2022/08/21 05:21:20;;;;;;;10.05;3.97;;;16.30;99.90;;;;;;5095338;28;20204;-81
2022/08/21 05:23:47;;;;;;;8.73;3.17;;;16.30;99.90;;;;;;5095040;28;20223;-81
2022/08/21 05:26:14;;;;;;;6.53;2.80;;;16.40;99.90;;;;;;5094702;28;20200;-80
2022/08/21 05:28:41;;;;;;;8.27;2.80;;;16.40;99.90;;;;;;5095706;28;20236;-80
2022/08/21 05:31:08;;;;;;;8.50;3.05;;;16.40;99.90;;;;;;5094936;28;20208;-81
2022/08/21 05:33:36;;;;;;;8.75;3.25;;;16.40;99.90;;;;;;5095750;28;20656;-78
2022/08/21 05:36:03;;;;;;;13.90;4.07;;;16.40;99.90;;;;;;5094842;28;20234;-79
2022/08/21 05:38:30;;;;;;;10.90;3.78;;;16.50;99.90;;;;;;5094794;28;20192;-80
2022/08/21 05:40:57;;;;;;;9.63;3.53;;;16.50;99.90;;;;;;5094472;28;20292;-80
2022/08/21 05:43:24;;;;;;;12.27;4.57;;;16.60;99.90;;;;;;5094550;28;20742;-81
2022/08/21 05:45:51;;;;;;;8.05;3.53;;;16.70;99.90;;;;;;5094544;28;20207;-80
2022/08/21 05:48:21;;;;;;;11.38;3.55;;;16.70;99.90;;;;;;5093952;28;20293;-80
2022/08/21 05:50:51;;;;;;;8.95;3.50;;;16.70;99.90;;;;;;5094451;28;20761;-80
2022/08/21 05:53:20;;;;;;;11.77;4.50;;;16.80;99.90;;;;;;5094478;28;20665;-79
2022/08/21 05:55:47;;;;;;;10.73;4.10;;;16.80;99.90;;;;;;5093872;28;20909;-79
2022/08/21 05:58:15;;;;;;;8.10;3.45;;;16.90;99.90;;;;;;5094090;28;20762;-80
2022/08/21 06:00:43;;;;;;;12.57;4.35;;;17.00;99.90;;;;;;5094454;28;20201;-80
2022/08/21 06:03:15;;;;;;;9.63;3.65;;;17.00;99.90;;;;;;5093955;28;20200;-80
2022/08/21 06:05:42;;;;;;;11.10;4.13;;;17.20;99.90;;;;;;5076347;28;20204;-80
2022/08/21 06:08:10;;;;;;;12.23;4.00;;;17.30;99.90;;;;;;5093881;28;20208;-81
2022/08/21 06:10:37;;;;;;;13.60;4.50;;;17.40;99.90;;;;;;5094326;28;20285;-81
2022/08/21 06:13:05;;;;;;;9.02;3.90;;;17.50;99.90;;;;;;5094530;28;20667;-81
2022/08/21 06:15:32;;;;;;;12.38;4.32;;;17.60;99.90;;;;;;5094763;28;20208;-84
2022/08/21 06:17:59;;;;;;;8.75;3.60;;;17.70;99.90;;;;;;5095187;28;20192;-81
2022/08/21 06:20:26;;;;;;;9.02;4.53;;;17.80;99.90;;;;;;5095208;28;20192;-81
2022/08/21 06:22:53;;;;;;;9.18;3.67;;;17.90;99.90;;;;;;5095033;28;20205;-84
2022/08/21 06:25:21;;;;;;;11.05;4.00;;;18.00;99.90;;;;;;5095097;28;20189;-83
2022/08/21 06:27:48;;;;;;;16.00;4.70;;;18.00;99.90;;;;;;5094063;28;20208;-82
2022/08/21 06:30:15;;;;;;;11.70;4.35;;;18.00;99.90;;;;;;5114659;28;20196;-83
2022/08/21 06:32:42;;;;;;;15.27;3.95;;;18.10;99.90;;;;;;5114616;28;20206;-82
2022/08/21 06:35:11;;;;;;;15.98;4.35;;;18.10;99.90;;;;;;5096909;28;20235;-82
2022/08/21 06:37:38;;;;;;;14.43;4.50;;;18.10;99.90;;;;;;5114042;28;20558;-83
2022/08/21 06:40:06;;;;;;;14.63;4.03;;;18.20;99.90;;;;;;5114666;28;20200;-83
2022/08/21 06:42:34;;;;;;;14.07;5.10;;;18.20;99.90;;;;;;5102658;28;20422;-83
2022/08/21 06:45:01;;;;;;;13.90;4.60;;;18.30;99.90;;;;;;5097248;28;20204;-82
2022/08/21 06:47:28;;;;;;;15.95;4.32;;;18.40;99.90;;;;;;5096416;28;20231;-84
2022/08/21 06:49:55;;;;;;;8.95;3.53;;;18.50;99.90;;;;;;5095077;28;20204;-82
2022/08/21 06:52:21;;;;;;;10.05;3.55;;;18.60;99.90;;;;;;5095185;28;20204;-80
2022/08/21 06:54:48;;;;;;;11.73;5.57;;;18.60;99.90;;;;;;5093282;28;20227;-83
2022/08/21 06:57:15;;;;;;;9.75;4.65;;;18.80;99.90;;;;;;5105881;28;20586;-83
2022/08/21 06:59:45;;;;;;;11.00;3.97;;;18.90;99.90;;;;;;5108489;28;20206;-83
2022/08/21 07:02:13;;;;;;;12.00;4.03;;;19.00;99.90;;;;;;5107479;28;20622;-83
2022/08/21 07:04:40;;;;;;;11.35;3.85;;;19.30;99.90;;;;;;5106890;28;20212;-82
2022/08/21 07:07:07;;;;;;;11.50;4.00;;;19.50;99.90;;;;;;5112878;28;20200;-83
2022/08/21 07:09:34;;;;;;;6.75;3.30;;;19.70;99.90;;;;;;5112342;28;20265;-80
2022/08/21 07:12:01;;;;;;;10.10;3.90;;;19.90;99.90;;;;;;5113102;28;20295;-82
2022/08/21 07:14:28;;;;;;;12.15;3.63;;;20.10;99.90;;;;;;5113388;28;20531;-81
2022/08/21 07:16:56;;;;;;;9.60;3.15;;;20.40;99.90;;;;;;5098409;28;20613;-86
2022/08/21 07:19:23;;;;;;;11.65;3.67;;;20.70;99.90;;;;;;5093168;28;20276;-83
2022/08/21 07:21:50;;;;;;;11.35;3.60;;;21.00;99.90;;;;;;5093739;28;20600;-83
2022/08/21 07:24:17;;;;;;;9.05;3.22;;;21.30;99.90;;;;;;5093488;28;20197;-80
2022/08/21 07:26:44;;;;;;;11.15;3.08;;;21.70;99.90;;;;;;5092971;28;20208;-82
2022/08/21 07:29:11;;;;;;;11.52;4.03;;;22.10;99.90;;;;;;5093080;28;20216;-81
2022/08/21 07:31:38;;;;;;;12.15;3.92;;;22.40;99.90;;;;;;5093270;28;20616;-81
2022/08/21 07:34:06;;;;;;;10.25;3.15;;;22.60;99.90;;;;;;5093068;28;20943;-80
2022/08/21 07:36:33;;;;;;;13.65;3.88;;;22.80;99.90;;;;;;5093463;28;20550;-84
2022/08/21 07:39:00;;;;;;;10.00;4.00;;;22.90;99.90;;;;;;5093172;28;20224;-83
2022/08/21 07:41:29;;;;;;;10.23;3.90;;;23.00;99.90;;;;;;5092204;28;20256;-85
2022/08/21 07:43:58;;;;;;;12.45;3.83;;;23.10;99.90;;;;;;5092749;28;20489;-82
2022/08/21 07:46:26;;;;;;;11.52;3.70;;;23.20;99.90;;;;;;5092897;28;20196;-83
2022/08/21 07:48:52;;;;;;;9.98;3.47;;;23.40;99.90;;;;;;5093367;28;20254;-84
2022/08/21 07:51:25;;;;;;;9.85;2.90;;;23.70;99.90;;;;;;5093128;28;20624;-83
2022/08/21 07:53:53;;;;;;;7.88;2.97;;;23.90;99.90;;;;;;5092303;28;20287;-84
2022/08/21 07:56:20;;;;;;;13.60;3.40;;;24.10;99.90;;;;;;5093374;28;20241;-84
2022/08/21 07:58:48;;;;;;;9.43;2.92;;;24.30;99.90;;;;;;5113454;28;20196;-85
2022/08/21 08:01:15;;;;;;;8.82;2.92;;;24.60;99.90;;;;;;5112098;28;20553;-83
2022/08/21 08:03:42;;;;;;;8.38;2.53;;;24.80;99.90;;;;;;5112461;28;20286;-83
2022/08/21 08:06:12;;;;;;;8.70;2.42;;;25.00;99.90;;;;;;5103645;28;20245;-83
2022/08/21 08:08:41;;;;;;;7.47;2.90;;;25.00;99.90;;;;;;5091151;28;20200;-84
2022/08/21 08:11:10;;;;;;;8.93;3.20;;;24.90;99.90;;;;;;5092595;28;20786;-83
2022/08/21 08:13:40;;;;;;;9.02;2.90;;;24.80;99.90;;;;;;5101769;28;20239;-83
2022/08/21 08:16:07;;;;;;;6.75;2.58;;;24.70;99.90;;;;;;5112373;28;20211;-82
2022/08/21 08:18:34;;;;;;;8.93;2.70;;;24.50;99.90;;;;;;5113175;28;20230;-82
2022/08/21 08:21:01;;;;;;;8.65;2.58;;;24.30;99.90;;;;;;5107171;28;20207;-83
2022/08/21 08:23:30;;;;;;;5.68;2.60;;;24.00;99.90;;;;;;5092475;28;20201;-84
2022/08/21 08:25:59;;;;;;;6.13;2.45;;;23.70;99.90;;;;;;5092158;28;20212;-83
2022/08/21 08:28:26;;;;;;;8.05;3.22;;;23.40;99.90;;;;;;5092136;28;20207;-84
2022/08/21 08:30:53;;;;;;;4.88;2.35;;;23.20;99.90;;;;;;5091552;28;20205;-83
2022/08/21 08:33:21;;;;;;;9.70;3.08;;;23.00;99.90;;;;;;5100317;28;20196;-83
2022/08/21 08:35:50;;;;;;;8.27;3.50;;;22.90;99.90;;;;;;5112538;28;20897;-82
2022/08/21 08:38:19;;;;;;;7.80;3.17;;;23.00;99.90;;;;;;5113069;28;20215;-82
2022/08/21 08:40:53;;;;;;;10.40;3.67;;;23.40;99.90;;;;;;5112312;28;20204;-84
2022/08/21 08:43:22;;;;;;;9.05;2.38;;;24.00;99.90;;;;;;5112426;28;20189;-81
2022/08/21 08:45:51;;;;;;;6.43;2.42;;;24.60;99.90;;;;;;5098500;28;20208;-82
2022/08/21 08:48:33;;;;;;;9.30;2.60;;;25.00;99.90;;;;;;5092171;28;20189;-82
2022/08/21 08:51:03;;;;;;;6.57;2.33;;;25.40;99.90;;;;;;5092311;28;20196;-80
2022/08/21 08:53:34;;;;;;;6.03;2.30;;;25.70;99.90;;;;;;5103695;28;20207;-80
2022/08/21 08:56:03;;;;;;;8.13;2.50;;;25.70;99.90;;;;;;5112425;28;20349;-81
2022/08/21 08:58:34;;;;;;;8.20;2.92;;;25.60;99.90;;;;;;5117210;28;20192;-82
2022/08/21 09:01:04;;;;;;;11.57;3.63;;;25.50;99.90;;;;;;5113802;28;20220;-84
2022/08/21 09:03:31;;;;;;;7.65;2.88;;;25.70;99.90;;;;;;5098698;28;20199;-81
2022/08/21 09:06:11;;;;;;;8.25;2.70;;;25.90;99.90;;;;;;5096119;28;20196;-80
2022/08/21 09:08:49;;;;;;;6.70;2.28;;;25.90;99.90;;;;;;5106103;28;20260;-81
2022/08/21 09:11:26;;;;;;;8.02;2.45;;;25.90;99.90;;;;;;5102099;28;20197;-84
2022/08/21 09:14:04;;;;;;;8.82;2.35;;;26.00;99.90;;;;;;5099724;28;20177;-81
2022/08/21 09:16:43;;;;;;;8.00;2.10;;;26.00;99.90;;;;;;5096146;28;20201;-81
2022/08/21 09:19:24;;;;;;;4.60;1.90;;;25.70;99.90;;;;;;5095026;28;20591;-81
2022/08/21 09:22:04;;;;;;;9.57;2.60;;;25.60;99.90;;;;;;5095279;28;20359;-80
2022/08/21 09:24:34;;;;;;;7.28;2.38;;;25.20;99.90;;;;;;5095276;28;20193;-80
2022/08/21 09:27:07;;;;;;;4.72;1.95;;;24.60;99.90;;;;;;5094240;28;20203;-81
2022/08/21 09:29:41;;;;;;;6.25;2.13;;;24.40;99.90;;;;;;5115493;28;20263;-82
2022/08/21 09:32:15;;;;;;;9.70;2.40;;;24.10;99.90;;;;;;5111225;28;20315;-82
2022/08/21 09:34:42;;;;;;;5.82;1.92;;;23.80;99.90;;;;;;5095374;28;20228;-84
2022/08/21 09:37:18;;;;;;;7.25;2.38;;;23.50;99.90;;;;;;5094556;28;20203;-81
2022/08/21 09:39:45;;;;;;;10.05;2.50;;;23.60;99.90;;;;;;5094669;28;20195;-81
2022/08/21 09:42:12;;;;;;;5.63;2.10;;;23.50;99.90;;;;;;5103640;28;20208;-80
2022/08/21 09:44:43;;;;;;;10.25;2.35;;;23.40;99.90;;;;;;5114994;28;20191;-83
2022/08/21 09:47:12;;;;;;;6.72;2.22;;;23.30;99.90;;;;;;5112180;28;20548;-83
2022/08/21 09:49:41;;;;;;;10.88;2.10;;;23.10;99.90;;;;;;5114328;28;20196;-81
2022/08/21 09:52:21;;;;;;;6.22;1.95;;;23.00;99.90;;;;;;5106446;28;20288;-84
2022/08/21 09:54:52;;;;;;;5.18;2.22;;;22.90;99.90;;;;;;5095519;28;20281;-84
2022/08/21 09:57:42;;;;;;;7.47;2.08;;;22.90;99.90;;;;;;5096033;28;20215;-83
2022/08/21 10:00:18;;;;;;;5.57;1.90;;;22.70;99.90;;;;;;5095124;28;20192;-83
2022/08/21 10:02:45;;;;;;;9.55;2.22;;;22.60;99.90;;;;;;5094837;28;20223;-83
2022/08/21 10:05:19;;;;;;;6.90;1.98;;;22.50;99.90;;;;;;5095501;28;20475;-84
2022/08/21 10:07:46;;;;;;;7.40;2.33;;;22.50;99.90;;;;;;5094567;28;20192;-82
2022/08/21 10:10:18;;;;;;;5.63;2.20;;;22.50;99.90;;;;;;5095014;28;20228;-81
2022/08/21 10:12:50;;;;;;;5.25;2.03;;;22.60;99.90;;;;;;5095452;28;20618;-82
2022/08/21 10:15:24;;;;;;;4.85;1.80;;;22.60;99.90;;;;;;5095066;28;20212;-82
2022/08/21 10:18:05;;;;;;;10.55;2.40;;;22.60;99.90;;;;;;5094646;28;20200;-83
2022/08/21 10:20:40;;;;;;;5.32;1.80;;;22.50;99.90;;;;;;5095373;28;20284;-82
2022/08/21 10:23:30;;;;;;;4.65;1.75;;;22.50;99.90;;;;;;5095095;28;20196;-82
2022/08/21 10:26:06;;;;;;;7.13;2.40;;;22.50;99.90;;;;;;5094765;28;20199;-82
2022/08/21 10:28:40;;;;;;;7.55;2.03;;;22.50;99.90;;;;;;5110665;28;20195;-85
2022/08/21 10:31:19;;;;;;;8.88;2.20;;;22.50;99.90;;;;;;5114980;28;20191;-81
2022/08/21 10:33:54;;;;;;;7.60;2.17;;;22.60;99.90;;;;;;5111070;28;20219;-81
2022/08/21 10:36:27;;;;;;;6.25;1.92;;;22.60;99.90;;;;;;5112011;28;20235;-83
2022/08/21 10:39:00;;;;;;;7.32;2.30;;;22.60;99.90;;;;;;5114887;28;20204;-81
2022/08/21 10:41:43;;;;;;;6.40;2.35;;;22.80;99.90;;;;;;5115984;28;20177;-82
2022/08/21 10:44:23;;;;;;;5.78;2.15;;;23.20;99.90;;;;;;5114310;28;20198;-82
2022/08/21 10:47:01;;;;;;;6.13;1.98;;;23.30;99.90;;;;;;5103412;28;20215;-83
2022/08/21 10:49:39;;;;;;;5.95;1.88;;;23.30;99.90;;;;;;5113843;28;20226;-82
2022/08/21 10:52:27;;;;;;;8.27;2.58;;;23.50;99.90;;;;;;5108967;28;20199;-81
2022/08/21 10:55:00;;;;;;;9.25;2.03;;;23.50;99.90;;;;;;5096181;28;20246;-80
2022/08/21 10:57:34;;;;;;;7.35;2.53;;;23.50;99.90;;;;;;5096798;28;20197;-81
2022/08/21 11:00:07;;;;;;;7.65;2.30;;;23.70;99.90;;;;;;5097066;28;20200;-83
2022/08/21 11:02:41;;;;;;;6.65;1.60;;;23.90;99.90;;;;;;5095556;28;20584;-82
2022/08/21 11:05:17;;;;;;;3.63;1.58;;;24.10;99.90;;;;;;5094683;28;20771;-83
2022/08/21 11:07:48;;;;;;;7.38;2.28;;;24.30;99.90;;;;;;5094251;28;20196;-82
2022/08/21 11:10:22;;;;;;;7.38;2.25;;;24.40;99.90;;;;;;5094436;28;20263;-81
2022/08/21 11:12:52;;;;;;;5.30;2.08;;;24.50;99.90;;;;;;5113224;28;20291;-83
2022/08/21 11:15:36;;;;;;;5.50;1.92;;;24.50;99.90;;;;;;5111389;28;20484;-85
2022/08/21 11:18:14;;;;;;;6.70;2.53;;;24.70;99.90;;;;;;5113303;28;20250;-82
2022/08/21 11:20:49;;;;;;;6.70;1.90;;;24.80;99.90;;;;;;5093399;28;20231;-83
2022/08/21 11:23:25;;;;;;;4.00;1.60;;;24.90;99.90;;;;;;5092918;28;20245;-82
2022/08/21 11:25:58;;;;;;;9.07;2.42;;;24.90;99.90;;;;;;5094401;28;20584;-83
2022/08/21 11:28:30;;;;;;;7.60;2.28;;;25.00;99.90;;;;;;5094620;28;20573;-81
2022/08/21 11:31:12;;;;;;;6.63;2.20;;;25.10;99.90;;;;;;5095317;28;20261;-81
2022/08/21 11:34:04;;;;;;;4.88;1.98;;;25.00;99.90;;;;;;5093905;28;20204;-82
2022/08/21 11:36:41;;;;;;;8.50;2.63;;;24.90;99.90;;;;;;5094461;28;20244;-81
2022/08/21 11:39:16;;;;;;;7.28;2.10;;;24.80;99.90;;;;;;5100715;28;20560;-81
2022/08/21 11:41:49;;;;;;;7.25;2.03;;;24.70;99.90;;;;;;5110662;28;20184;-81
2022/08/21 11:44:24;;;;;;;6.75;1.98;;;24.70;99.90;;;;;;5113396;28;20195;-82
2022/08/21 11:46:59;;;;;;;3.97;1.67;;;24.50;99.90;;;;;;5114627;28;20195;-81
2022/08/21 11:49:50;;;;;;;8.98;2.40;;;24.40;99.90;;;;;;5115448;28;20188;-82
2022/08/21 11:52:22;;;;;;;6.65;2.10;;;24.30;99.90;;;;;;5115793;28;20239;-80
2022/08/21 11:54:55;;;;;;;7.15;2.30;;;24.20;99.90;;;;;;5098996;28;20299;-80
2022/08/21 11:57:28;;;;;;;6.38;2.20;;;24.20;99.90;;;;;;5093628;28;20236;-83
2022/08/21 12:00:01;;;;;;;5.80;1.63;;;24.30;99.90;;;;;;5100903;28;20203;-81
2022/08/21 12:02:32;;;;;;;3.67;1.60;;;24.40;99.90;;;;;;5113095;28;20279;-82
2022/08/21 12:05:05;;;;;;;5.00;2.20;;;24.20;99.90;;;;;;5106788;28;20287;-79
2022/08/21 12:07:36;;;;;;;5.72;1.80;;;24.30;99.90;;;;;;5091283;28;20279;-78
2022/08/21 12:10:05;;;;;;;7.65;2.08;;;24.20;99.90;;;;;;5092032;28;20252;-80
2022/08/21 12:12:34;;;;;;;7.95;2.13;;;24.40;99.90;;;;;;5092080;28;20217;-80
2022/08/21 12:15:17;;;;;;;5.07;1.90;;;24.70;99.90;;;;;;5091189;28;20205;-78
2022/08/21 12:17:54;;;;;;;7.70;2.08;;;24.80;99.90;;;;;;5090722;28;20193;-79
2022/08/21 12:20:39;;;;;;;7.57;2.20;;;25.10;99.90;;;;;;5092158;28;20196;-78
2022/08/21 12:23:18;;;;;;;7.43;2.30;;;25.10;99.90;;;;;;5092007;28;20220;-80
2022/08/21 12:25:49;;;;;;;5.60;2.00;;;24.90;99.90;;;;;;5091796;28;20492;-77
2022/08/21 12:28:23;;;;;;;4.03;1.60;;;24.80;99.90;;;;;;5095610;28;20210;-79
2022/08/21 12:30:50;;;;;;;5.80;1.90;;;24.60;99.90;;;;;;5095977;28;20200;-79
2022/08/21 12:33:24;;;;;;;6.03;1.80;;;24.40;99.90;;;;;;5095950;28;20279;-79
2022/08/21 12:36:02;;;;;;;6.90;1.65;;;24.40;99.90;;;;;;5094840;28;20216;-80
2022/08/21 12:38:33;;;;;;;3.35;1.67;;;24.50;99.90;;;;;;5095353;28;20196;-81
2022/08/21 12:41:03;;;;;;;4.10;1.88;;;24.40;99.90;;;;;;5095793;28;20282;-78
2022/08/21 12:43:35;;;;;;;6.15;1.85;;;24.40;99.90;;;;;;5096281;28;20191;-81
2022/08/21 12:46:04;;;;;;;4.97;1.80;;;24.30;99.90;;;;;;5096595;28;20496;-81
2022/08/21 12:48:35;;;;;;;3.80;1.60;;;24.30;99.90;;;;;;5096315;28;20211;-82
2022/08/21 12:51:12;;;;;;;6.07;1.50;;;24.40;99.90;;;;;;5095669;28;20212;-80
2022/08/21 12:53:45;;;;;;;5.63;1.83;;;24.50;99.90;;;;;;5096349;28;20231;-78
2022/08/21 12:56:14;;;;;;;5.55;1.52;;;24.70;99.90;;;;;;5097414;28;20232;-79
2022/08/21 12:58:45;;;;;;;4.30;1.85;;;24.80;99.90;;;;;;5116328;28;20194;-81